Time;durP1;ratioP1;P1;durP2;ratioP2;P2;SDS_P1;SDS_P2;PMS_P1;PMS_P2;Temp;Humidity;BMP_temperature;BMP_pressure;BME280_temperature;BME280_humidity;BME280_pressure;Samples;Min_cycle;Max_cycle;Signal;HPM_P1;HPM_P2
2022/03/21 00:00:57;;;;;;;63.93;27.50;;;8.20;99.90;;;;;;5036235;28;20170;-83
2022/03/21 00:03:25;;;;;;;55.83;27.00;;;8.30;99.90;;;;;;5036209;28;20191;-83
2022/03/21 00:05:51;;;;;;;59.27;26.47;;;8.30;99.90;;;;;;5035531;28;20171;-83
2022/03/21 00:08:18;;;;;;;58.30;26.37;;;8.40;99.90;;;;;;5035433;28;20566;-82
2022/03/21 00:10:45;;;;;;;55.50;25.43;;;8.40;99.90;;;;;;5036262;28;20279;-83
2022/03/21 00:13:15;;;;;;;62.50;27.97;;;8.50;99.90;;;;;;5037229;28;20204;-83
2022/03/21 00:15:42;;;;;;;64.27;30.23;;;8.40;99.90;;;;;;5037068;28;20176;-83
2022/03/21 00:18:08;;;;;;;66.20;29.03;;;8.10;99.90;;;;;;5036771;28;20174;-83
2022/03/21 00:20:33;;;;;;;61.27;28.97;;;8.10;99.90;;;;;;5037198;28;20545;-83
2022/03/21 00:23:00;;;;;;;62.23;28.07;;;8.10;99.90;;;;;;5037675;28;20563;-83
2022/03/21 00:25:26;;;;;;;62.23;29.00;;;8.20;99.90;;;;;;5038294;28;20178;-83
2022/03/21 00:27:52;;;;;;;62.60;28.13;;;8.20;99.90;;;;;;5038190;28;20185;-83
2022/03/21 00:30:18;;;;;;;59.97;26.93;;;8.20;99.90;;;;;;5038306;28;20252;-83
2022/03/21 00:32:44;;;;;;;58.30;27.07;;;8.20;99.90;;;;;;5038376;28;20227;-83
2022/03/21 00:35:14;;;;;;;65.37;29.30;;;8.30;99.90;;;;;;5040573;28;20265;-83
2022/03/21 00:37:40;;;;;;;59.07;28.43;;;8.40;99.90;;;;;;5039596;28;20763;-83
2022/03/21 00:40:07;;;;;;;65.13;29.30;;;8.30;99.90;;;;;;5040769;28;20595;-83
2022/03/21 00:42:35;;;;;;;65.97;30.07;;;8.30;99.90;;;;;;5046405;28;20174;-83
2022/03/21 00:45:02;;;;;;;63.77;29.17;;;8.30;99.90;;;;;;5036873;28;20184;-83
2022/03/21 00:47:28;;;;;;;60.13;28.40;;;8.30;99.90;;;;;;5033904;28;20201;-83
2022/03/21 00:49:54;;;;;;;64.97;28.80;;;8.40;99.90;;;;;;5034003;28;20275;-83
2022/03/21 00:52:20;;;;;;;63.27;28.27;;;8.50;99.90;;;;;;5034521;28;20221;-83
2022/03/21 00:54:46;;;;;;;64.90;29.90;;;8.50;99.90;;;;;;5035442;28;20204;-83
2022/03/21 00:57:12;;;;;;;60.03;27.93;;;8.50;99.90;;;;;;5037253;28;20178;-83
2022/03/21 00:59:37;;;;;;;66.97;29.13;;;8.40;99.90;;;;;;5036849;28;20218;-83
2022/03/21 01:02:03;;;;;;;61.30;26.67;;;8.30;99.90;;;;;;5037564;28;20254;-83
2022/03/21 01:04:29;;;;;;;61.37;26.57;;;8.30;99.90;;;;;;5037586;28;20177;-83
2022/03/21 01:06:55;;;;;;;58.03;26.47;;;8.30;99.90;;;;;;5040771;28;20174;-83
2022/03/21 01:09:20;;;;;;;58.47;26.07;;;8.30;99.90;;;;;;5040681;28;20284;-83
2022/03/21 01:11:46;;;;;;;56.77;25.33;;;8.30;99.90;;;;;;5040626;28;20177;-83
2022/03/21 01:14:13;;;;;;;52.20;25.27;;;8.30;99.90;;;;;;5040580;28;20208;-83
2022/03/21 01:16:38;;;;;;;55.87;26.13;;;8.20;99.90;;;;;;5039999;28;20174;-83
2022/03/21 01:19:05;;;;;;;60.40;26.80;;;8.20;99.90;;;;;;5040516;28;20260;-83
2022/03/21 01:21:34;;;;;;;55.17;26.40;;;8.30;99.90;;;;;;5040238;28;20177;-83
2022/03/21 01:24:00;;;;;;;60.07;26.97;;;8.40;99.90;;;;;;5040473;28;20177;-83
2022/03/21 01:26:26;;;;;;;55.73;25.67;;;8.30;99.90;;;;;;5042545;28;20185;-83
2022/03/21 01:28:52;;;;;;;53.87;25.20;;;8.20;99.90;;;;;;5037012;28;20686;-83
2022/03/21 01:31:17;;;;;;;53.57;24.60;;;8.20;99.90;;;;;;5035950;28;20185;-83
2022/03/21 01:33:43;;;;;;;52.97;25.10;;;8.30;99.90;;;;;;5036520;28;20237;-83
2022/03/21 01:36:09;;;;;;;57.53;25.93;;;8.20;99.90;;;;;;5036569;28;20245;-83
2022/03/21 01:38:35;;;;;;;59.90;25.87;;;8.20;99.90;;;;;;5036833;28;20562;-83
2022/03/21 01:41:00;;;;;;;63.97;26.27;;;8.20;99.90;;;;;;5036299;28;20191;-83
2022/03/21 01:43:26;;;;;;;57.63;25.50;;;8.20;99.90;;;;;;5036660;28;20182;-83
2022/03/21 01:45:52;;;;;;;51.13;24.67;;;8.10;99.90;;;;;;5036588;28;20174;-83
2022/03/21 01:48:18;;;;;;;54.00;24.80;;;8.20;99.90;;;;;;5036457;28;20197;-83
2022/03/21 01:50:44;;;;;;;60.43;26.53;;;8.20;99.90;;;;;;5034522;28;20189;-82
2022/03/21 01:55:56;;;;;;;55.67;25.40;;;8.20;99.90;;;;;;5036044;28;20181;-82
2022/03/21 01:58:24;;;;;;;57.23;25.93;;;8.00;99.90;;;;;;5034006;28;20241;-82
2022/03/21 02:00:51;;;;;;;52.23;25.33;;;7.90;99.90;;;;;;5034545;28;20170;-82
2022/03/21 02:03:19;;;;;;;55.97;25.07;;;7.90;99.90;;;;;;5034640;28;20186;-82
2022/03/21 02:05:47;;;;;;;55.97;24.00;;;7.90;99.90;;;;;;5034379;28;20186;-83
2022/03/21 02:08:13;;;;;;;53.93;24.67;;;8.10;99.90;;;;;;5034328;28;20668;-83
2022/03/21 02:10:39;;;;;;;57.03;24.23;;;8.20;99.90;;;;;;5034579;28;20213;-82
2022/03/21 02:13:06;;;;;;;52.47;24.27;;;8.20;99.90;;;;;;5033716;28;20307;-82
2022/03/21 02:15:32;;;;;;;52.07;23.80;;;8.20;99.90;;;;;;5033909;28;20174;-82
2022/03/21 02:18:02;;;;;;;57.57;25.57;;;8.20;99.90;;;;;;5034490;28;20196;-83
2022/03/21 02:20:31;;;;;;;57.30;25.43;;;8.20;99.90;;;;;;5034449;28;20181;-82
2022/03/21 02:23:09;;;;;;;54.47;25.53;;;8.10;99.90;;;;;;5034730;28;20181;-82
2022/03/21 02:25:39;;;;;;;60.00;27.60;;;8.10;99.90;;;;;;5035672;28;20629;-83
2022/03/21 02:28:11;;;;;;;58.03;25.90;;;8.20;99.90;;;;;;5040536;28;20269;-83
2022/03/21 02:30:42;;;;;;;59.87;27.30;;;8.00;99.90;;;;;;5041297;28;20194;-83
2022/03/21 02:33:10;;;;;;;60.23;26.00;;;8.10;99.90;;;;;;5039638;28;20292;-83
2022/03/21 02:35:38;;;;;;;57.43;25.63;;;8.10;99.90;;;;;;5040019;28;20186;-83
2022/03/21 02:38:07;;;;;;;57.10;25.90;;;8.10;99.90;;;;;;5039687;28;20174;-83
2022/03/21 02:40:33;;;;;;;63.33;26.97;;;8.10;99.90;;;;;;5041330;28;20170;-83
2022/03/21 02:42:59;;;;;;;58.03;25.20;;;8.00;99.90;;;;;;5042337;28;20183;-83
2022/03/21 02:45:25;;;;;;;58.63;25.80;;;8.10;99.90;;;;;;5042913;28;20178;-83
2022/03/21 02:47:51;;;;;;;56.50;25.40;;;8.00;99.90;;;;;;5042016;28;20185;-83
2022/03/21 02:50:36;;;;;;;57.67;26.80;;;8.10;99.90;;;;;;5041827;28;20208;-83
2022/03/21 02:53:03;;;;;;;59.63;25.90;;;8.10;99.90;;;;;;5042752;28;20213;-83
2022/03/21 02:55:29;;;;;;;55.07;25.40;;;8.10;99.90;;;;;;5042524;28;20178;-83
2022/03/21 02:57:54;;;;;;;62.40;26.03;;;8.10;99.90;;;;;;5041457;28;20182;-83
2022/03/21 03:00:20;;;;;;;54.57;25.37;;;8.00;99.90;;;;;;5041571;28;20174;-83
2022/03/21 03:02:46;;;;;;;52.57;25.27;;;8.00;99.90;;;;;;5042949;28;20177;-83
2022/03/21 03:05:11;;;;;;;57.80;26.87;;;7.90;99.90;;;;;;5041816;28;20178;-84
2022/03/21 03:07:37;;;;;;;57.23;26.73;;;8.00;99.90;;;;;;5042048;28;20202;-83
2022/03/21 03:10:03;;;;;;;57.10;25.80;;;8.00;99.90;;;;;;5038610;28;20201;-83
2022/03/21 03:12:28;;;;;;;54.47;25.03;;;7.90;99.90;;;;;;5036162;28;20203;-82
2022/03/21 03:14:54;;;;;;;60.37;26.43;;;7.80;99.90;;;;;;5036254;28;20173;-83
2022/03/21 03:17:21;;;;;;;53.57;24.07;;;7.60;99.90;;;;;;5036681;28;20685;-83
2022/03/21 03:19:46;;;;;;;57.30;25.00;;;7.70;99.90;;;;;;5037425;28;20193;-83
2022/03/21 03:22:14;;;;;;;56.60;25.77;;;7.60;99.90;;;;;;5036894;28;20626;-83
2022/03/21 03:24:40;;;;;;;51.00;25.40;;;7.50;99.90;;;;;;5037274;28;20173;-82
2022/03/21 03:27:06;;;;;;;53.20;25.27;;;7.60;99.90;;;;;;5037129;28;20167;-83
2022/03/21 03:29:31;;;;;;;58.20;25.80;;;7.70;99.90;;;;;;5036748;28;20212;-83
2022/03/21 03:32:00;;;;;;;55.33;26.63;;;7.70;99.90;;;;;;5037403;28;20170;-83
2022/03/21 03:34:27;;;;;;;56.43;26.77;;;7.60;99.90;;;;;;5038125;28;20618;-83
2022/03/21 03:36:52;;;;;;;63.27;27.23;;;7.60;99.90;;;;;;5039023;28;20659;-83
2022/03/21 03:39:18;;;;;;;60.80;26.40;;;7.50;99.90;;;;;;5038235;28;20189;-83
2022/03/21 03:41:44;;;;;;;62.60;26.73;;;7.30;99.90;;;;;;5038636;28;20183;-83
2022/03/21 03:44:10;;;;;;;56.50;25.83;;;7.30;99.90;;;;;;5038895;28;20656;-83
2022/03/21 03:46:36;;;;;;;61.70;27.57;;;7.20;99.90;;;;;;5038829;28;20181;-83
2022/03/21 03:49:02;;;;;;;60.30;26.33;;;7.30;99.90;;;;;;5039395;28;20204;-83
2022/03/21 03:51:27;;;;;;;65.63;27.57;;;7.20;99.90;;;;;;5040124;28;20176;-83
2022/03/21 03:53:53;;;;;;;59.13;27.43;;;7.30;99.90;;;;;;5039982;28;20241;-83
2022/03/21 03:56:19;;;;;;;62.10;27.90;;;7.20;99.90;;;;;;5040193;28;20185;-83
2022/03/21 03:58:44;;;;;;;60.63;26.77;;;7.00;99.90;;;;;;5040993;28;20193;-83
2022/03/21 04:01:10;;;;;;;63.83;26.77;;;6.90;99.90;;;;;;5043415;28;20238;-83
2022/03/21 04:03:44;;;;;;;59.93;25.67;;;7.10;99.90;;;;;;5043822;28;20212;-83
2022/03/21 04:06:11;;;;;;;67.97;27.90;;;6.90;99.90;;;;;;5037000;28;20332;-83
2022/03/21 04:08:36;;;;;;;65.00;27.80;;;6.90;99.90;;;;;;5033820;28;20236;-83
2022/03/21 04:11:02;;;;;;;69.13;27.30;;;6.80;99.90;;;;;;5033489;28;20182;-83
2022/03/21 04:13:28;;;;;;;63.87;28.53;;;6.70;99.90;;;;;;5033150;28;20569;-83
2022/03/21 04:15:54;;;;;;;65.50;26.87;;;6.50;99.90;;;;;;5032648;28;20174;-82
2022/03/21 04:18:20;;;;;;;65.40;28.47;;;6.40;99.90;;;;;;5033344;28;20207;-83
2022/03/21 04:20:48;;;;;;;66.87;27.80;;;6.50;99.90;;;;;;5033581;28;20200;-82
2022/03/21 04:23:14;;;;;;;61.67;27.40;;;6.60;99.90;;;;;;5032748;28;20212;-83
2022/03/21 04:25:40;;;;;;;68.80;28.00;;;6.50;99.90;;;;;;5033231;28;20642;-83
2022/03/21 04:28:10;;;;;;;72.40;29.27;;;6.50;99.90;;;;;;5035834;28;20180;-83
2022/03/21 04:30:37;;;;;;;68.37;28.03;;;6.40;99.90;;;;;;5037741;28;20234;-83
2022/03/21 04:33:03;;;;;;;71.40;28.73;;;6.30;99.90;;;;;;5038243;28;20236;-83
2022/03/21 04:35:29;;;;;;;68.10;28.17;;;6.30;99.90;;;;;;5038143;28;20194;-83
2022/03/21 04:37:55;;;;;;;74.50;28.80;;;6.30;99.90;;;;;;5038325;28;20249;-83
2022/03/21 04:40:22;;;;;;;65.93;28.90;;;6.20;99.90;;;;;;5042514;28;20183;-83
2022/03/21 04:42:47;;;;;;;65.50;28.33;;;6.10;99.90;;;;;;5042032;28;20211;-83
2022/03/21 04:45:13;;;;;;;67.17;28.03;;;6.20;99.90;;;;;;5042152;28;20188;-83
2022/03/21 04:47:39;;;;;;;63.77;27.60;;;6.10;99.90;;;;;;5042307;28;20190;-83
2022/03/21 04:50:07;;;;;;;63.47;28.20;;;6.10;99.90;;;;;;5042194;28;20288;-83
2022/03/21 04:52:33;;;;;;;68.77;28.53;;;6.00;99.90;;;;;;5042689;28;20242;-84
2022/03/21 04:55:00;;;;;;;65.63;27.90;;;6.00;99.90;;;;;;5041543;28;20584;-83
2022/03/21 04:57:27;;;;;;;69.23;28.87;;;6.00;99.90;;;;;;5042652;28;20704;-82
2022/03/21 04:59:54;;;;;;;63.47;27.47;;;6.00;99.90;;;;;;5042171;28;20196;-83
2022/03/21 05:02:20;;;;;;;67.03;29.43;;;6.00;99.90;;;;;;5042204;28;20177;-83
2022/03/21 05:04:46;;;;;;;68.93;27.87;;;5.80;99.90;;;;;;5041894;28;20541;-83
2022/03/21 05:07:16;;;;;;;65.83;28.33;;;5.70;99.90;;;;;;5025779;28;20227;-83
2022/03/21 05:09:42;;;;;;;82.43;30.07;;;5.70;99.90;;;;;;5041970;28;20265;-83
2022/03/21 05:12:09;;;;;;;70.87;28.63;;;5.90;99.90;;;;;;5041342;28;20177;-83
2022/03/21 05:14:36;;;;;;;73.17;28.83;;;5.80;99.90;;;;;;5041469;28;20186;-82
2022/03/21 05:17:02;;;;;;;72.13;30.13;;;5.60;99.90;;;;;;5040597;28;20179;-83
2022/03/21 05:19:35;;;;;;;73.37;29.57;;;5.60;99.90;;;;;;5040375;28;20205;-82
2022/03/21 05:22:05;;;;;;;66.37;28.97;;;5.50;99.90;;;;;;5039602;28;20170;-83
2022/03/21 05:32:43;;;;;;;69.93;28.17;;;5.20;99.90;;;;;;5038882;28;20193;-82
2022/03/21 05:37:53;;;;;;;69.73;27.83;;;5.10;99.90;;;;;;5038695;28;20181;-82
2022/03/21 05:40:31;;;;;;;79.77;29.90;;;5.10;99.90;;;;;;5036196;28;20180;-82
2022/03/21 05:42:57;;;;;;;71.67;28.60;;;5.20;99.90;;;;;;5036290;28;20171;-82
2022/03/21 05:45:23;;;;;;;72.43;29.97;;;5.30;99.90;;;;;;5035996;28;20182;-82
2022/03/21 05:50:38;;;;;;;68.67;28.83;;;5.20;99.90;;;;;;5036830;28;20186;-82
2022/03/21 05:53:06;;;;;;;70.60;29.20;;;5.10;99.90;;;;;;5036512;28;20276;-83
2022/03/21 05:55:32;;;;;;;69.57;29.47;;;5.10;99.90;;;;;;5036428;28;20586;-82
2022/03/21 05:57:58;;;;;;;72.13;29.30;;;5.20;99.90;;;;;;5036074;28;20265;-82
2022/03/21 06:00:25;;;;;;;78.83;32.33;;;5.10;99.90;;;;;;5037406;28;20181;-83
2022/03/21 06:02:51;;;;;;;71.27;30.50;;;5.20;99.90;;;;;;5036063;28;20267;-83
2022/03/21 06:05:18;;;;;;;72.43;29.17;;;5.20;99.90;;;;;;5035318;28;20176;-82
2022/03/21 06:07:45;;;;;;;78.07;29.97;;;5.20;99.90;;;;;;5035848;28;20182;-82
2022/03/21 06:10:11;;;;;;;71.63;30.30;;;5.40;99.90;;;;;;5036014;28;20611;-83
2022/03/21 06:12:37;;;;;;;70.10;28.27;;;5.50;99.90;;;;;;5036308;28;20199;-83
2022/03/21 06:15:03;;;;;;;69.17;29.13;;;5.40;99.90;;;;;;5035417;28;20170;-82
2022/03/21 06:17:29;;;;;;;77.60;29.90;;;5.40;99.90;;;;;;5035588;28;20536;-82
2022/03/21 06:19:54;;;;;;;66.93;29.43;;;5.50;99.90;;;;;;5035551;28;20256;-82
2022/03/21 06:22:20;;;;;;;69.37;29.47;;;5.50;99.90;;;;;;5035398;28;20167;-83
2022/03/21 06:24:45;;;;;;;68.87;28.10;;;5.40;99.90;;;;;;5034857;28;20172;-83
2022/03/21 06:27:11;;;;;;;76.37;28.80;;;5.50;99.90;;;;;;5035301;28;20176;-83
2022/03/21 06:29:41;;;;;;;66.17;28.03;;;5.50;99.90;;;;;;5034312;28;20203;-83
2022/03/21 06:32:08;;;;;;;74.03;29.77;;;5.50;99.90;;;;;;5034561;28;20607;-83
2022/03/21 06:34:34;;;;;;;65.03;28.93;;;5.60;99.90;;;;;;5034928;28;20193;-83
2022/03/21 06:37:00;;;;;;;63.53;27.87;;;6.00;99.90;;;;;;5034836;28;20187;-83
2022/03/21 06:39:25;;;;;;;66.60;29.63;;;6.30;99.90;;;;;;5035094;28;20196;-83
2022/03/21 06:41:51;;;;;;;73.50;31.17;;;6.50;99.90;;;;;;5034733;28;20626;-83
2022/03/21 06:44:16;;;;;;;70.97;28.30;;;6.70;99.90;;;;;;5035093;28;20201;-83
2022/03/21 06:46:42;;;;;;;65.63;28.50;;;6.80;99.90;;;;;;5034740;28;20174;-83
2022/03/21 06:49:08;;;;;;;66.33;27.47;;;7.30;99.90;;;;;;5035175;28;20201;-83
2022/03/21 06:51:34;;;;;;;60.43;28.33;;;7.70;99.90;;;;;;5034248;28;20181;-83
2022/03/21 06:54:00;;;;;;;60.67;27.03;;;7.80;99.90;;;;;;5035483;28;20574;-83
2022/03/21 06:56:25;;;;;;;75.43;28.10;;;7.50;99.90;;;;;;5035500;28;20167;-83
2022/03/21 06:58:51;;;;;;;65.43;26.67;;;7.60;99.90;;;;;;5035292;28;20190;-83
2022/03/21 07:01:17;;;;;;;64.10;27.33;;;8.00;99.90;;;;;;5035086;28;20281;-83
2022/03/21 07:03:42;;;;;;;69.93;27.83;;;8.70;99.90;;;;;;5034921;28;20250;-83
2022/03/21 07:06:08;;;;;;;59.97;25.77;;;8.60;99.90;;;;;;5035346;28;20206;-83
2022/03/21 07:08:33;;;;;;;56.60;25.60;;;8.70;99.90;;;;;;5035651;28;20629;-82
2022/03/21 07:10:59;;;;;;;52.37;25.33;;;9.60;99.90;;;;;;5035319;28;20170;-82
2022/03/21 07:13:27;;;;;;;47.63;24.57;;;9.30;99.90;;;;;;5035325;28;20262;-82
2022/03/21 07:15:53;;;;;;;54.77;25.30;;;8.80;99.90;;;;;;5035559;28;20175;-86
2022/03/21 07:18:19;;;;;;;51.03;24.70;;;9.20;99.90;;;;;;5034379;28;20188;-81
2022/03/21 07:20:44;;;;;;;51.20;24.43;;;10.10;99.90;;;;;;5033842;28;20174;-81
2022/03/21 07:23:10;;;;;;;49.10;23.43;;;10.50;99.90;;;;;;5033564;28;20176;-81
2022/03/21 07:25:36;;;;;;;46.67;23.60;;;11.50;99.10;;;;;;5042600;28;20178;-80
2022/03/21 07:28:02;;;;;;;50.20;23.63;;;12.10;97.50;;;;;;5041770;28;20185;-80
2022/03/21 07:30:27;;;;;;;43.87;22.00;;;11.60;98.30;;;;;;5032693;28;20166;-81
2022/03/21 07:32:54;;;;;;;42.73;22.30;;;12.20;95.60;;;;;;5031610;28;20204;-80
2022/03/21 07:35:19;;;;;;;43.37;23.40;;;13.20;93.40;;;;;;5032064;28;20619;-79
2022/03/21 07:37:47;;;;;;;40.63;21.83;;;13.50;91.20;;;;;;5031526;28;20197;-79
2022/03/21 07:40:14;;;;;;;38.30;21.77;;;13.80;90.20;;;;;;5032268;28;20720;-79
2022/03/21 07:42:41;;;;;;;45.37;22.97;;;14.30;89.50;;;;;;5035254;28;20182;-79
2022/03/21 07:47:53;;;;;;;38.77;22.33;;;14.40;86.10;;;;;;5036823;28;20188;-79
2022/03/21 07:50:20;;;;;;;39.07;21.03;;;14.80;83.20;;;;;;5035608;28;20184;-80
2022/03/21 07:52:47;;;;;;;34.00;19.73;;;13.90;86.10;;;;;;5035016;28;20208;-80
2022/03/21 07:55:13;;;;;;;32.23;18.63;;;13.80;82.10;;;;;;5036123;28;20257;-79
2022/03/21 07:57:38;;;;;;;29.57;18.93;;;14.00;80.10;;;;;;5034084;28;20194;-79
2022/03/21 08:00:05;;;;;;;30.57;18.87;;;14.70;84.90;;;;;;5034720;28;20194;-79
2022/03/21 08:02:33;;;;;;;31.80;18.90;;;15.10;78.50;;;;;;5033048;28;20178;-80
2022/03/21 08:05:01;;;;;;;30.40;18.52;;;14.90;78.30;;;;;;5034064;28;20177;-80
2022/03/21 08:07:27;;;;;;;30.50;18.17;;;14.40;77.80;;;;;;5034104;28;20174;-79
2022/03/21 08:09:52;;;;;;;34.42;19.85;;;13.80;78.00;;;;;;5033333;28;20738;-79
2022/03/21 08:12:19;;;;;;;31.03;18.63;;;13.60;80.90;;;;;;5032847;28;20174;-79
2022/03/21 08:14:44;;;;;;;33.22;18.83;;;13.60;82.50;;;;;;5035339;28;20176;-78
2022/03/21 08:17:10;;;;;;;30.83;18.63;;;14.30;82.60;;;;;;5036622;28;20654;-78
2022/03/21 08:19:36;;;;;;;29.05;18.05;;;15.20;76.60;;;;;;5036625;28;20619;-79
2022/03/21 08:22:04;;;;;;;28.42;17.92;;;16.20;76.20;;;;;;5036661;28;20654;-80
2022/03/21 08:24:34;;;;;;;29.30;17.65;;;14.60;76.60;;;;;;5036489;28;20616;-79
2022/03/21 08:27:05;;;;;;;28.58;18.45;;;13.50;81.70;;;;;;5036565;28;20247;-78
2022/03/21 08:29:31;;;;;;;28.85;17.60;;;13.30;81.20;;;;;;5041816;28;20194;-77
2022/03/21 08:31:57;;;;;;;26.70;17.95;;;12.90;82.10;;;;;;5036293;28;20230;-78
2022/03/21 08:34:23;;;;;;;29.38;17.17;;;13.40;80.50;;;;;;5036325;28;20202;-78
2022/03/21 08:36:49;;;;;;;29.38;17.35;;;13.10;82.90;;;;;;5036832;28;20235;-78
2022/03/21 08:39:15;;;;;;;27.08;17.10;;;13.50;79.80;;;;;;5036637;28;20778;-78
2022/03/21 08:41:40;;;;;;;28.27;17.25;;;14.10;78.80;;;;;;5036906;28;20166;-79
2022/03/21 08:44:06;;;;;;;28.13;16.45;;;15.50;77.80;;;;;;5036751;28;20170;-78
2022/03/21 08:46:32;;;;;;;29.95;17.70;;;15.70;74.40;;;;;;5036343;28;20315;-78
2022/03/21 08:51:43;;;;;;;31.60;17.20;;;15.10;74.90;;;;;;5039097;28;20181;-79
2022/03/21 08:54:09;;;;;;;33.70;16.50;;;15.10;72.80;;;;;;5036432;28;20209;-78
2022/03/21 08:56:34;;;;;;;36.37;16.83;;;14.10;75.30;;;;;;5034703;28;20174;-78
2022/03/21 08:59:00;;;;;;;27.83;15.40;;;15.60;73.20;;;;;;5036109;28;20651;-78
2022/03/21 09:01:27;;;;;;;29.20;16.00;;;16.00;73.60;;;;;;5035334;28;20170;-78
2022/03/21 09:03:53;;;;;;;29.43;16.57;;;15.60;71.80;;;;;;5038193;28;20606;-78
2022/03/21 09:06:20;;;;;;;27.40;15.43;;;15.70;69.60;;;;;;5038165;28;20216;-78
2022/03/21 09:08:48;;;;;;;29.47;15.53;;;14.30;72.10;;;;;;5036748;28;20204;-78
2022/03/21 09:11:14;;;;;;;29.10;15.87;;;14.80;73.50;;;;;;5037104;28;20178;-79
2022/03/21 09:13:40;;;;;;;30.70;16.47;;;14.70;72.00;;;;;;5036432;28;20206;-79
2022/03/21 09:16:06;;;;;;;29.07;15.53;;;15.10;72.70;;;;;;5036756;28;20177;-79
2022/03/21 09:18:31;;;;;;;27.30;14.50;;;14.50;72.70;;;;;;5040166;28;20198;-79
2022/03/21 09:20:57;;;;;;;26.67;15.17;;;14.30;73.40;;;;;;5036417;28;20177;-78
2022/03/21 09:23:23;;;;;;;31.00;15.07;;;15.00;73.00;;;;;;5036156;28;20185;-78
2022/03/21 09:25:49;;;;;;;27.87;15.63;;;15.80;73.20;;;;;;5035615;28;20174;-79
2022/03/21 09:28:15;;;;;;;25.30;14.97;;;15.70;69.60;;;;;;5036344;28;20198;-79
2022/03/21 09:30:41;;;;;;;25.83;15.37;;;15.60;71.00;;;;;;5036556;28;20184;-79
2022/03/21 09:33:07;;;;;;;29.13;14.77;;;15.70;71.30;;;;;;5036388;28;20202;-79
2022/03/21 09:35:34;;;;;;;29.70;14.63;;;16.20;70.20;;;;;;5036977;28;20204;-79
2022/03/21 09:38:00;;;;;;;26.53;15.30;;;16.80;70.30;;;;;;5038028;28;20170;-79
2022/03/21 09:40:28;;;;;;;26.60;15.07;;;16.00;69.00;;;;;;5037312;28;20174;-79
2022/03/21 09:42:54;;;;;;;25.90;14.90;;;15.70;70.60;;;;;;5037168;28;20189;-79
2022/03/21 09:45:20;;;;;;;28.07;15.83;;;15.60;69.60;;;;;;5037490;28;20261;-79
2022/03/21 09:50:34;;;;;;;27.37;16.03;;;15.40;69.60;;;;;;5039526;28;20223;-79
2022/03/21 09:53:00;;;;;;;30.43;16.00;;;15.70;70.00;;;;;;5037541;28;20193;-79
2022/03/21 09:55:26;;;;;;;28.50;16.17;;;16.10;69.90;;;;;;5037622;28;20174;-79
2022/03/21 09:57:52;;;;;;;27.10;15.93;;;15.90;69.60;;;;;;5038059;28;20681;-79
2022/03/21 10:00:17;;;;;;;28.03;15.83;;;15.80;69.80;;;;;;5037341;28;20244;-79
2022/03/21 10:02:43;;;;;;;29.50;15.27;;;16.60;70.50;;;;;;5038131;28;20192;-79
2022/03/21 10:05:38;;;;;;;28.43;15.80;;;16.80;70.60;;;;;;5037294;28;20184;-79
2022/03/21 10:08:15;;;;;;;27.90;15.07;;;16.40;68.60;;;;;;5037013;28;20185;-80
2022/03/21 10:11:10;;;;;;;26.77;15.90;;;17.30;68.40;;;;;;5034833;28;20173;-79
2022/03/21 10:13:38;;;;;;;27.73;15.70;;;17.60;68.00;;;;;;5025666;28;20208;-79
2022/03/21 10:16:15;;;;;;;24.02;15.23;;;17.40;67.20;;;;;;5034614;28;20606;-79
2022/03/21 10:18:53;;;;;;;26.17;15.80;;;16.90;67.40;;;;;;5034762;28;20535;-79
2022/03/21 10:21:21;;;;;;;25.58;15.15;;;16.90;67.90;;;;;;5033755;28;20545;-79
2022/03/21 10:24:07;;;;;;;23.65;15.13;;;16.90;69.90;;;;;;5034352;28;20174;-79
2022/03/21 10:26:35;;;;;;;25.02;15.73;;;17.80;67.90;;;;;;5034579;28;20178;-78
2022/03/21 10:29:06;;;;;;;28.88;16.65;;;17.60;67.10;;;;;;5032806;28;20679;-78
2022/03/21 10:31:40;;;;;;;28.33;17.30;;;17.10;65.90;;;;;;5033176;28;20181;-78
2022/03/21 10:34:09;;;;;;;28.60;16.92;;;16.60;68.60;;;;;;5032981;28;20304;-78
2022/03/21 10:36:35;;;;;;;26.02;16.00;;;17.20;67.20;;;;;;5032657;28;20181;-78
2022/03/21 10:39:12;;;;;;;31.50;16.67;;;17.30;68.10;;;;;;5033271;28;20193;-78
2022/03/21 10:41:39;;;;;;;24.70;15.32;;;17.30;67.80;;;;;;5029818;28;20177;-77
2022/03/21 10:44:07;;;;;;;30.10;16.05;;;18.10;68.10;;;;;;5032076;28;20223;-77
2022/03/21 10:46:33;;;;;;;29.83;15.57;;;17.90;66.40;;;;;;5031337;28;20174;-78
2022/03/21 10:49:08;;;;;;;27.45;16.52;;;17.70;65.60;;;;;;5031766;28;20197;-79
2022/03/21 10:51:53;;;;;;;28.40;16.20;;;17.70;66.00;;;;;;5032045;28;20204;-78
2022/03/21 10:54:38;;;;;;;28.52;16.30;;;18.20;65.90;;;;;;5029001;28;20197;-79
2022/03/21 10:57:04;;;;;;;31.88;16.50;;;18.40;68.20;;;;;;5029233;28;20196;-79
2022/03/21 10:59:34;;;;;;;28.92;16.70;;;18.60;64.60;;;;;;5032183;28;20186;-79
2022/03/21 11:02:14;;;;;;;28.23;15.93;;;18.00;67.00;;;;;;5031874;28;20166;-78
2022/03/21 11:04:43;;;;;;;33.17;17.40;;;18.40;67.30;;;;;;5032317;28;20657;-78
2022/03/21 11:07:11;;;;;;;29.45;17.00;;;18.50;63.80;;;;;;5033384;28;20540;-79
2022/03/21 11:09:38;;;;;;;31.30;16.37;;;17.20;65.60;;;;;;5032950;28;20202;-79
2022/03/21 11:12:05;;;;;;;28.17;16.23;;;17.80;65.60;;;;;;5032893;28;20317;-79
2022/03/21 11:14:32;;;;;;;29.27;16.10;;;18.20;63.90;;;;;;5037186;28;20202;-79
2022/03/21 11:16:58;;;;;;;29.48;16.20;;;17.30;65.80;;;;;;5037137;28;20538;-78
2022/03/21 11:19:25;;;;;;;26.20;15.67;;;17.70;66.00;;;;;;5033353;28;20197;-78
2022/03/21 11:21:51;;;;;;;29.70;16.50;;;18.00;65.80;;;;;;5033259;28;20631;-79
2022/03/21 11:24:17;;;;;;;29.60;16.73;;;18.30;64.80;;;;;;5032328;28;20196;-77
2022/03/21 11:27:10;;;;;;;31.63;16.60;;;18.20;65.40;;;;;;5031848;28;20701;-78
2022/03/21 11:30:00;;;;;;;30.27;16.98;;;18.80;66.90;;;;;;5032816;28;20194;-78
2022/03/21 11:32:50;;;;;;;30.17;16.70;;;18.10;65.40;;;;;;5033901;28;20174;-77
2022/03/21 11:35:24;;;;;;;33.85;17.33;;;18.70;63.70;;;;;;5034036;28;20189;-77
2022/03/21 11:37:50;;;;;;;29.65;16.35;;;18.70;64.80;;;;;;5033997;28;20174;-78
2022/03/21 11:40:36;;;;;;;29.92;16.63;;;18.40;64.40;;;;;;5035393;28;20190;-77
2022/03/21 11:43:17;;;;;;;27.25;16.08;;;18.20;64.40;;;;;;5036418;28;20173;-78
2022/03/21 11:45:47;;;;;;;30.07;17.00;;;17.50;65.90;;;;;;5034210;28;20665;-77
2022/03/21 11:48:19;;;;;;;32.07;17.00;;;17.80;65.10;;;;;;5032389;28;20692;-77
2022/03/21 11:50:46;;;;;;;27.33;16.20;;;18.10;64.70;;;;;;5032705;28;20182;-77
2022/03/21 11:53:13;;;;;;;34.75;16.85;;;18.30;64.90;;;;;;5032955;28;20198;-77
2022/03/21 11:55:43;;;;;;;41.45;17.55;;;18.90;65.30;;;;;;5033672;28;20243;-78
2022/03/21 11:58:41;;;;;;;35.85;17.55;;;19.20;63.10;;;;;;5033187;28;20186;-77
2022/03/21 12:01:13;;;;;;;31.15;17.17;;;20.10;61.60;;;;;;5032639;28;20182;-78
2022/03/21 12:03:43;;;;;;;29.20;17.55;;;19.90;61.80;;;;;;5034435;28;20243;-78
2022/03/21 12:06:25;;;;;;;33.95;17.52;;;19.60;62.00;;;;;;5033447;28;20170;-78
2022/03/21 12:08:57;;;;;;;34.50;18.30;;;19.30;63.20;;;;;;5036068;28;20706;-78
2022/03/21 12:11:38;;;;;;;35.38;17.02;;;18.90;63.80;;;;;;5033714;28;20176;-77
2022/03/21 12:14:40;;;;;;;31.40;17.73;;;18.50;65.30;;;;;;5034946;28;20233;-79
2022/03/21 12:17:25;;;;;;;33.08;17.33;;;18.30;64.60;;;;;;5036019;28;20170;-78
2022/03/21 12:20:02;;;;;;;36.58;17.45;;;18.20;64.90;;;;;;5035727;28;20192;-78
2022/03/21 12:22:37;;;;;;;34.03;17.60;;;18.50;65.60;;;;;;5035952;28;20178;-78
2022/03/21 12:25:03;;;;;;;29.93;17.13;;;18.80;65.00;;;;;;5034643;28;20681;-79
2022/03/21 12:27:44;;;;;;;28.43;16.67;;;19.00;65.10;;;;;;5036371;28;20223;-79
2022/03/21 12:32:59;;;;;;;32.43;17.23;;;18.80;64.70;;;;;;5036330;28;20194;-80
2022/03/21 12:35:30;;;;;;;37.50;18.05;;;18.60;63.20;;;;;;5034429;28;20216;-78
2022/03/21 12:38:00;;;;;;;34.17;18.13;;;18.60;64.60;;;;;;5035398;28;20162;-78
2022/03/21 12:40:25;;;;;;;40.00;17.60;;;18.40;65.40;;;;;;5035195;28;20190;-78
2022/03/21 12:42:51;;;;;;;33.67;17.53;;;18.40;65.10;;;;;;5034805;28;20181;-77
2022/03/21 12:45:18;;;;;;;33.67;17.80;;;18.20;66.70;;;;;;5034272;28;20201;-78
2022/03/21 12:47:44;;;;;;;33.87;17.07;;;18.30;65.90;;;;;;5033414;28;20170;-77
2022/03/21 12:50:16;;;;;;;34.70;17.03;;;18.30;67.30;;;;;;5035109;28;20696;-78
2022/03/21 12:52:42;;;;;;;32.93;17.03;;;17.90;66.10;;;;;;5033643;28;20336;-77
2022/03/21 12:55:14;;;;;;;35.00;16.53;;;18.00;68.10;;;;;;5033588;28;20178;-78
2022/03/21 12:57:55;;;;;;;31.00;17.07;;;18.00;67.90;;;;;;5033238;28;20176;-78
2022/03/21 13:00:22;;;;;;;40.43;17.63;;;18.20;67.80;;;;;;5035278;28;20284;-78
2022/03/21 13:02:48;;;;;;;31.10;16.17;;;18.30;67.30;;;;;;5036053;28;20730;-77
2022/03/21 13:10:43;;;;;;;32.23;16.97;;;18.00;67.10;;;;;;5037536;28;20213;-78